Time;durP1;ratioP1;P1;durP2;ratioP2;P2;SDS_P1;SDS_P2;PMS_P1;PMS_P2;Temp;Humidity;BMP_temperature;BMP_pressure;BME280_temperature;BME280_humidity;BME280_pressure;Samples;Min_cycle;Max_cycle;Signal;HPM_P1;HPM_P2
2021/11/25 00:01:44;;;;;;;9.77;8.77;;;;;;;;;;5015968;28;87406;-57
2021/11/25 00:04:11;;;;;;;8.50;7.60;;;;;;;;;;5010088;28;87365;-57
2021/11/25 00:06:38;;;;;;;14.40;7.88;;;;;;;;;;5010568;28;86956;-54
2021/11/25 00:09:05;;;;;;;10.82;8.27;;;;;;;;;;5009290;28;89581;-57
2021/11/25 00:11:32;;;;;;;8.57;7.72;;;;;;;;;;5002916;28;89476;-55
2021/11/25 00:13:59;;;;;;;8.77;7.25;;;;;;;;;;5008989;28;86877;-56
2021/11/25 00:16:27;;;;;;;7.68;6.43;;;;;;;;;;5010784;28;87039;-58
2021/11/25 00:18:55;;;;;;;10.30;7.07;;;;;;;;;;5010599;28;88672;-60
2021/11/25 00:21:22;;;;;;;9.85;7.72;;;;;;;;;;5002371;28;88415;-50
2021/11/25 00:23:49;;;;;;;22.20;16.65;;;;;;;;;;5002453;28;86696;-55
2021/11/25 00:26:17;;;;;;;17.45;12.63;;;;;;;;;;5002200;28;86104;-53
2021/11/25 00:28:45;;;;;;;10.63;8.57;;;;;;;;;;5000378;28;88577;-49
2021/11/25 00:31:12;;;;;;;11.70;10.43;;;;;;;;;;5002411;28;88329;-49
2021/11/25 00:33:39;;;;;;;20.73;12.18;;;;;;;;;;5001374;28;87753;-50
2021/11/25 00:36:07;;;;;;;13.10;11.60;;;;;;;;;;5001560;28;87540;-58
2021/11/25 00:38:34;;;;;;;35.10;25.92;;;;;;;;;;5001932;28;88626;-55
2021/11/25 00:41:02;;;;;;;25.45;18.73;;;;;;;;;;5001560;28;88629;-52
2021/11/25 00:43:29;;;;;;;19.20;15.60;;;;;;;;;;5002062;28;86858;-51
2021/11/25 00:45:56;;;;;;;24.52;19.50;;;;;;;;;;5001367;28;86902;-52
2021/11/25 00:48:23;;;;;;;14.50;11.85;;;;;;;;;;5000759;28;88865;-52
2021/11/25 00:50:50;;;;;;;11.00;9.55;;;;;;;;;;5001873;28;88473;-56
2021/11/25 00:53:17;;;;;;;12.05;7.45;;;;;;;;;;5002385;28;86817;-51
2021/11/25 00:55:44;;;;;;;11.55;8.50;;;;;;;;;;5002826;28;86682;-51
2021/11/25 00:58:11;;;;;;;9.73;7.20;;;;;;;;;;5000562;28;89590;-54
2021/11/25 01:00:39;;;;;;;120.38;72.95;;;;;;;;;;5001804;28;89510;-50
2021/11/25 01:03:07;;;;;;;55.90;38.05;;;;;;;;;;5004108;28;86879;-54
2021/11/25 01:05:35;;;;;;;14.60;11.20;;;;;;;;;;5005692;28;87015;-59
2021/11/25 01:08:02;;;;;;;13.60;10.15;;;;;;;;;;5004641;28;88595;-55
2021/11/25 01:10:29;;;;;;;15.73;10.27;;;;;;;;;;5005057;28;88651;-54
2021/11/25 01:12:57;;;;;;;11.70;9.27;;;;;;;;;;5004468;28;86804;-53
2021/11/25 01:15:29;;;;;;;10.68;8.20;;;;;;;;;;5006457;28;86132;-54
2021/11/25 01:17:59;;;;;;;10.40;8.18;;;;;;;;;;5005726;28;88689;-58
2021/11/25 01:20:27;;;;;;;9.93;7.50;;;;;;;;;;5005222;28;87468;-56
2021/11/25 01:22:56;;;;;;;10.60;8.95;;;;;;;;;;5005285;28;87838;-56
2021/11/25 01:25:23;;;;;;;12.57;9.45;;;;;;;;;;5005566;28;86930;-57
2021/11/25 01:27:50;;;;;;;11.82;7.93;;;;;;;;;;5005468;28;87725;-59
2021/11/25 01:30:17;;;;;;;12.68;8.43;;;;;;;;;;5013062;28;88437;-58
2021/11/25 01:32:44;;;;;;;11.45;7.95;;;;;;;;;;5023135;28;87014;-58
2021/11/25 01:35:11;;;;;;;8.73;7.43;;;;;;;;;;5019487;28;88765;-57
2021/11/25 01:37:39;;;;;;;9.00;7.78;;;;;;;;;;5022094;28;87616;-56
2021/11/25 01:40:09;;;;;;;11.43;7.82;;;;;;;;;;5021359;28;88314;-61
2021/11/25 01:42:41;;;;;;;10.98;8.50;;;;;;;;;;5021818;28;87512;-57
2021/11/25 01:45:10;;;;;;;13.23;10.48;;;;;;;;;;5021302;28;87892;-56
2021/11/25 01:47:41;;;;;;;12.50;10.57;;;;;;;;;;5020992;28;89530;-58
2021/11/25 01:50:08;;;;;;;13.45;11.57;;;;;;;;;;5020812;28;89557;-54
2021/11/25 01:52:35;;;;;;;16.33;12.60;;;;;;;;;;5019686;28;86869;-57
2021/11/25 01:55:02;;;;;;;16.58;12.27;;;;;;;;;;5021927;28;87056;-60
2021/11/25 01:57:29;;;;;;;17.23;12.80;;;;;;;;;;5018979;28;87758;-58
2021/11/25 01:59:56;;;;;;;15.52;12.02;;;;;;;;;;5022788;28;87719;-57
2021/11/25 02:02:23;;;;;;;14.93;10.40;;;;;;;;;;5020789;28;87017;-58
2021/11/25 02:04:50;;;;;;;16.42;11.35;;;;;;;;;;5021093;28;86130;-58
2021/11/25 02:07:17;;;;;;;12.30;10.60;;;;;;;;;;5018812;28;88755;-57
2021/11/25 02:09:45;;;;;;;13.30;11.32;;;;;;;;;;5020946;28;88678;-58
2021/11/25 02:12:12;;;;;;;15.52;11.75;;;;;;;;;;5020161;28;87914;-58
2021/11/25 02:14:40;;;;;;;14.60;11.05;;;;;;;;;;5019209;28;87028;-57
2021/11/25 02:17:07;;;;;;;18.42;11.80;;;;;;;;;;5020801;28;89189;-58
2021/11/25 02:19:35;;;;;;;14.82;11.98;;;;;;;;;;5008760;28;88453;-58
2021/11/25 02:22:02;;;;;;;13.40;10.48;;;;;;;;;;5002003;28;87087;-58
2021/11/25 02:24:31;;;;;;;18.33;12.10;;;;;;;;;;5000867;28;86873;-58
2021/11/25 02:26:58;;;;;;;15.23;10.85;;;;;;;;;;5001459;28;88669;-56
2021/11/25 02:29:25;;;;;;;15.57;11.55;;;;;;;;;;5002632;28;88348;-56
2021/11/25 02:31:52;;;;;;;14.10;11.02;;;;;;;;;;5010674;28;86793;-58
2021/11/25 02:34:19;;;;;;;14.55;12.02;;;;;;;;;;5006435;28;86936;-58
2021/11/25 02:36:46;;;;;;;24.05;13.93;;;;;;;;;;5004812;28;89572;-58
2021/11/25 02:39:13;;;;;;;15.57;12.55;;;;;;;;;;5005121;28;89470;-58
2021/11/25 02:41:41;;;;;;;16.85;12.93;;;;;;;;;;5007739;28;86999;-63
2021/11/25 02:44:07;;;;;;;18.15;12.70;;;;;;;;;;5003756;28;87581;-58
2021/11/25 02:46:34;;;;;;;15.60;11.45;;;;;;;;;;5004744;28;88504;-58
2021/11/25 02:49:02;;;;;;;14.75;11.98;;;;;;;;;;4993613;28;87748;-58
2021/11/25 02:51:35;;;;;;;15.02;11.57;;;;;;;;;;5005349;28;87079;-56
2021/11/25 02:54:02;;;;;;;15.30;11.52;;;;;;;;;;5006960;28;86158;-57
2021/11/25 02:56:30;;;;;;;20.00;12.27;;;;;;;;;;5004522;28;88215;-57
2021/11/25 02:58:58;;;;;;;15.60;12.18;;;;;;;;;;5008688;28;88618;-57
2021/11/25 03:01:36;;;;;;;21.83;16.15;;;;;;;;;;5009003;28;87904;-58
2021/11/25 03:04:04;;;;;;;21.15;12.27;;;;;;;;;;5004521;28;86941;-58
2021/11/25 03:06:32;;;;;;;16.85;14.30;;;;;;;;;;5005465;28;87883;-58
2021/11/25 03:08:59;;;;;;;16.98;11.90;;;;;;;;;;5004815;28;89604;-59
2021/11/25 03:11:28;;;;;;;19.52;13.18;;;;;;;;;;5002950;28;87123;-58
2021/11/25 03:14:05;;;;;;;15.25;12.40;;;;;;;;;;5000306;28;87674;-58
2021/11/25 03:16:33;;;;;;;15.20;12.45;;;;;;;;;;5005155;28;88572;-54
2021/11/25 03:19:00;;;;;;;17.60;12.30;;;;;;;;;;5002008;28;88539;-53
2021/11/25 03:21:27;;;;;;;18.02;13.05;;;;;;;;;;5006601;28;87443;-52
2021/11/25 03:23:55;;;;;;;15.30;12.75;;;;;;;;;;5005397;28;86970;-53
2021/11/25 03:26:24;;;;;;;15.32;13.65;;;;;;;;;;5012684;28;89526;-53
2021/11/25 03:28:51;;;;;;;16.20;11.73;;;;;;;;;;5008634;28;89773;-58
2021/11/25 03:31:25;;;;;;;19.20;13.43;;;;;;;;;;5008618;28;86788;-57
2021/11/25 03:33:54;;;;;;;19.17;13.93;;;;;;;;;;5011693;28;87513;-58
2021/11/25 03:36:21;;;;;;;15.30;13.05;;;;;;;;;;5012484;28;88660;-55
2021/11/25 03:38:48;;;;;;;14.27;12.40;;;;;;;;;;5005901;28;88577;-55
2021/11/25 03:41:18;;;;;;;17.75;12.35;;;;;;;;;;5004558;28;87414;-57
2021/11/25 03:43:46;;;;;;;17.33;12.70;;;;;;;;;;5002779;28;86202;-56
2021/11/25 03:46:14;;;;;;;20.00;15.45;;;;;;;;;;5003000;28;88471;-55
2021/11/25 03:48:41;;;;;;;19.05;12.70;;;;;;;;;;5004696;28;88568;-54
2021/11/25 03:51:10;;;;;;;15.90;12.10;;;;;;;;;;5002782;28;88991;-53
2021/11/25 03:53:39;;;;;;;19.05;13.25;;;;;;;;;;5005070;28;87031;-54
2021/11/25 03:56:06;;;;;;;19.38;13.27;;;;;;;;;;5005627;28;88806;-53
2021/11/25 03:58:34;;;;;;;18.63;11.45;;;;;;;;;;5004645;28;88448;-51
2021/11/25 04:01:01;;;;;;;16.42;12.18;;;;;;;;;;5000642;28;86927;-52
2021/11/25 04:03:29;;;;;;;14.23;10.88;;;;;;;;;;5001564;28;86965;-52
2021/11/25 04:05:56;;;;;;;20.25;13.90;;;;;;;;;;5002391;28;88623;-51
2021/11/25 04:08:23;;;;;;;17.27;11.55;;;;;;;;;;5000143;28;88349;-53
2021/11/25 04:10:50;;;;;;;16.08;11.38;;;;;;;;;;5000969;28;87006;-55
2021/11/25 04:13:18;;;;;;;19.50;13.15;;;;;;;;;;5003227;28;87331;-53
2021/11/25 04:15:45;;;;;;;18.85;14.77;;;;;;;;;;5004129;28;88600;-54
2021/11/25 04:18:12;;;;;;;16.63;13.23;;;;;;;;;;5013935;28;89545;-52
2021/11/25 04:20:39;;;;;;;15.45;12.55;;;;;;;;;;5008950;28;86824;-55
2021/11/25 04:23:06;;;;;;;15.50;12.20;;;;;;;;;;5006729;28;86893;-59
2021/11/25 04:25:38;;;;;;;16.48;13.05;;;;;;;;;;5009005;28;87755;-58
2021/11/25 04:28:05;;;;;;;16.70;13.02;;;;;;;;;;5012362;28;88635;-54
2021/11/25 04:35:54;;;;;;;20.60;14.45;;;;;;;;;;4998601;28;89186;-56
2021/11/25 04:38:22;;;;;;;15.40;13.07;;;;;;;;;;5014742;28;88518;-55
2021/11/25 04:40:58;;;;;;;20.50;13.82;;;;;;;;;;5012543;28;87970;-58
2021/11/25 04:43:26;;;;;;;28.30;20.45;;;;;;;;;;5009478;28;87423;-57
2021/11/25 04:45:55;;;;;;;27.88;19.63;;;;;;;;;;5006562;28;88547;-56
2021/11/25 04:48:23;;;;;;;28.40;21.05;;;;;;;;;;5002429;28;88434;-52
2021/11/25 04:50:51;;;;;;;28.40;17.20;;;;;;;;;;5000973;28;86972;-52
2021/11/25 04:53:18;;;;;;;22.08;15.18;;;;;;;;;;5005252;28;87013;-52
2021/11/25 04:55:45;;;;;;;23.50;17.20;;;;;;;;;;5003494;28;88666;-60
2021/11/25 04:58:12;;;;;;;24.58;16.00;;;;;;;;;;5009528;28;88586;-59
2021/11/25 05:00:39;;;;;;;30.88;20.52;;;;;;;;;;5011819;28;87060;-57
2021/11/25 05:03:07;;;;;;;31.20;19.20;;;;;;;;;;5001174;28;87219;-57
2021/11/25 05:05:34;;;;;;;25.00;18.65;;;;;;;;;;5000389;28;89468;-56
2021/11/25 05:08:01;;;;;;;23.42;16.45;;;;;;;;;;5001055;28;89799;-57
2021/11/25 05:10:28;;;;;;;23.58;18.98;;;;;;;;;;5001662;28;86896;-57
2021/11/25 05:12:55;;;;;;;19.88;13.27;;;;;;;;;;5001338;28;86930;-57
2021/11/25 05:15:22;;;;;;;15.88;12.68;;;;;;;;;;5001170;28;88771;-57
2021/11/25 05:17:51;;;;;;;17.33;12.15;;;;;;;;;;5000526;28;88059;-56
2021/11/25 05:20:18;;;;;;;17.08;10.80;;;;;;;;;;5001582;28;87091;-57
2021/11/25 05:22:46;;;;;;;15.30;11.05;;;;;;;;;;5001124;28;86137;-57
2021/11/25 05:25:15;;;;;;;15.40;12.40;;;;;;;;;;5001132;28;88650;-56
2021/11/25 05:27:43;;;;;;;17.60;12.63;;;;;;;;;;5000461;28;87976;-57
2021/11/25 05:30:11;;;;;;;17.40;12.63;;;;;;;;;;5000698;28;87760;-57
2021/11/25 05:32:39;;;;;;;19.80;14.25;;;;;;;;;;5001006;28;86944;-57
2021/11/25 05:35:07;;;;;;;18.90;13.18;;;;;;;;;;5000793;28;88831;-56
2021/11/25 05:37:34;;;;;;;17.40;13.13;;;;;;;;;;5001009;28;88202;-56
2021/11/25 05:40:04;;;;;;;13.90;12.10;;;;;;;;;;5000797;28;86864;-57
2021/11/25 05:42:32;;;;;;;17.45;14.15;;;;;;;;;;5001342;28;86904;-54
2021/11/25 05:44:59;;;;;;;17.55;13.77;;;;;;;;;;5000312;28;88773;-58
2021/11/25 05:47:33;;;;;;;19.23;13.63;;;;;;;;;;5001615;28;88688;-57
2021/11/25 05:50:04;;;;;;;17.60;13.88;;;;;;;;;;5003705;28;86921;-54
2021/11/25 05:52:31;;;;;;;15.10;12.10;;;;;;;;;;5005046;28;86931;-57
2021/11/25 05:54:58;;;;;;;17.85;14.10;;;;;;;;;;5003802;28;88729;-58
2021/11/25 05:57:25;;;;;;;14.63;12.90;;;;;;;;;;5003819;28;89399;-56
2021/11/25 05:59:52;;;;;;;16.92;12.68;;;;;;;;;;5004050;28;87511;-56
2021/11/25 06:02:20;;;;;;;21.33;14.32;;;;;;;;;;5004390;28;86821;-53
2021/11/25 06:04:48;;;;;;;17.77;14.85;;;;;;;;;;5004387;28;88732;-56
2021/11/25 06:07:15;;;;;;;25.23;13.32;;;;;;;;;;5003631;28;88490;-56
2021/11/25 06:09:42;;;;;;;26.83;15.23;;;;;;;;;;5004061;28;86632;-55
2021/11/25 06:12:09;;;;;;;22.10;17.17;;;;;;;;;;5004104;28;86095;-56
2021/11/25 06:14:37;;;;;;;20.45;14.73;;;;;;;;;;5004187;28;88760;-56
2021/11/25 06:17:04;;;;;;;24.38;15.85;;;;;;;;;;5003653;28;87470;-57
2021/11/25 06:19:31;;;;;;;18.10;13.52;;;;;;;;;;5004019;28;87673;-57
2021/11/25 06:21:59;;;;;;;16.50;14.40;;;;;;;;;;5003740;28;86976;-57
2021/11/25 06:24:25;;;;;;;17.38;15.57;;;;;;;;;;5003720;28;87705;-56
2021/11/25 06:26:53;;;;;;;22.67;16.27;;;;;;;;;;5010507;28;87961;-58
2021/11/25 06:29:20;;;;;;;18.10;15.00;;;;;;;;;;5008288;28;87175;-57
2021/11/25 06:31:47;;;;;;;15.88;13.35;;;;;;;;;;5013325;28;86892;-56
2021/11/25 06:34:14;;;;;;;16.77;14.93;;;;;;;;;;5010331;28;87439;-58
2021/11/25 06:36:41;;;;;;;18.50;16.38;;;;;;;;;;5010935;28;88639;-58
2021/11/25 06:39:08;;;;;;;22.15;14.15;;;;;;;;;;5012071;28;88827;-57
2021/11/25 06:41:36;;;;;;;18.13;13.60;;;;;;;;;;5013875;28;87218;-57
2021/11/25 06:44:03;;;;;;;20.90;14.40;;;;;;;;;;5011072;28;89552;-57
2021/11/25 06:46:30;;;;;;;19.45;14.75;;;;;;;;;;5010745;28;89677;-56
2021/11/25 06:49:03;;;;;;;21.92;16.13;;;;;;;;;;5003647;28;86782;-57
2021/11/25 06:51:30;;;;;;;20.25;16.00;;;;;;;;;;5010764;28;86818;-56
2021/11/25 06:53:57;;;;;;;22.35;13.52;;;;;;;;;;5014825;28;88489;-57
2021/11/25 06:56:24;;;;;;;15.45;13.85;;;;;;;;;;5008531;28;88537;-57
2021/11/25 06:58:52;;;;;;;18.05;13.95;;;;;;;;;;5008456;28;87477;-55
2021/11/25 07:01:19;;;;;;;17.23;14.85;;;;;;;;;;5010644;28;86200;-56
2021/11/25 07:03:46;;;;;;;20.95;16.23;;;;;;;;;;5014897;28;88690;-56
2021/11/25 07:06:13;;;;;;;17.98;14.73;;;;;;;;;;5010725;28;87656;-61
2021/11/25 07:08:40;;;;;;;23.33;14.75;;;;;;;;;;5011039;28;87898;-61
2021/11/25 07:11:07;;;;;;;19.48;15.13;;;;;;;;;;5007255;28;87467;-62
2021/11/25 07:13:34;;;;;;;22.55;14.95;;;;;;;;;;5009141;28;88637;-63
2021/11/25 07:16:01;;;;;;;19.88;15.43;;;;;;;;;;5011483;28;88420;-61
2021/11/25 07:18:28;;;;;;;25.13;18.00;;;;;;;;;;5008916;28;86816;-60
2021/11/25 07:20:55;;;;;;;18.75;15.20;;;;;;;;;;4995275;28;90249;-59
2021/11/25 07:23:22;;;;;;;18.45;15.02;;;;;;;;;;4999811;28;87576;-60
2021/11/25 07:25:49;;;;;;;20.67;16.17;;;;;;;;;;5001495;28;88278;-58
2021/11/25 07:28:16;;;;;;;18.52;15.43;;;;;;;;;;4999124;28;86935;-59
2021/11/25 07:30:43;;;;;;;17.65;15.07;;;;;;;;;;4999779;28;86970;-58
2021/11/25 07:33:11;;;;;;;20.02;17.35;;;;;;;;;;5000901;28;89798;-59
2021/11/25 07:35:43;;;;;;;18.55;16.33;;;;;;;;;;5001596;28;88722;-59
2021/11/25 07:38:10;;;;;;;18.63;15.57;;;;;;;;;;4999262;28;87092;-56
2021/11/25 07:40:37;;;;;;;15.95;12.88;;;;;;;;;;5001206;28;86826;-55
2021/11/25 07:43:04;;;;;;;16.70;14.57;;;;;;;;;;4999768;28;88125;-57
2021/11/25 07:45:33;;;;;;;20.75;16.25;;;;;;;;;;5001575;28;87098;-54
2021/11/25 07:48:00;;;;;;;20.45;14.68;;;;;;;;;;5002378;28;86933;-58
2021/11/25 07:50:27;;;;;;;17.05;15.18;;;;;;;;;;5001972;28;86218;-58
2021/11/25 07:52:55;;;;;;;19.38;15.18;;;;;;;;;;5002230;28;88480;-59
2021/11/25 07:55:23;;;;;;;20.75;14.75;;;;;;;;;;5001363;28;87511;-58
2021/11/25 07:57:50;;;;;;;19.17;15.88;;;;;;;;;;5001095;28;87792;-59
2021/11/25 08:00:22;;;;;;;17.50;15.70;;;;;;;;;;5001667;28;86830;-58
2021/11/25 08:02:50;;;;;;;16.98;14.30;;;;;;;;;;5002002;28;88871;-57
2021/11/25 08:05:18;;;;;;;32.53;16.75;;;;;;;;;;5001503;28;88112;-59
2021/11/25 08:07:45;;;;;;;21.20;15.27;;;;;;;;;;5002206;28;86722;-58
2021/11/25 08:10:13;;;;;;;19.35;16.00;;;;;;;;;;5002414;28;87059;-59
2021/11/25 08:12:41;;;;;;;27.08;13.90;;;;;;;;;;5000598;28;88793;-58
2021/11/25 08:15:10;;;;;;;19.17;14.85;;;;;;;;;;4995877;28;88424;-58
2021/11/25 08:17:37;;;;;;;30.55;25.60;;;;;;;;;;4995254;28;87034;-59
2021/11/25 08:20:05;;;;;;;21.55;18.80;;;;;;;;;;5002164;28;86912;-59
2021/11/25 08:22:32;;;;;;;20.58;18.40;;;;;;;;;;5001054;28;89606;-58
2021/11/25 08:24:59;;;;;;;30.50;17.42;;;;;;;;;;5001884;28;89502;-57
2021/11/25 08:27:27;;;;;;;19.13;16.35;;;;;;;;;;5001194;28;87224;-59
2021/11/25 08:29:54;;;;;;;16.90;15.13;;;;;;;;;;5002273;28;86852;-58
2021/11/25 08:32:21;;;;;;;21.13;17.85;;;;;;;;;;5001511;28;89058;-60
2021/11/25 08:34:48;;;;;;;21.52;18.08;;;;;;;;;;5001782;28;88626;-59
2021/11/25 08:37:15;;;;;;;18.73;16.52;;;;;;;;;;5002180;28;86650;-60
2021/11/25 08:39:47;;;;;;;23.00;17.20;;;;;;;;;;5002381;28;86230;-60
2021/11/25 08:42:14;;;;;;;23.00;18.38;;;;;;;;;;5001743;28;88739;-61
2021/11/25 08:44:42;;;;;;;19.65;17.83;;;;;;;;;;5001243;28;88399;-61
2021/11/25 08:47:09;;;;;;;20.52;17.17;;;;;;;;;;5001304;28;87902;-57
2021/11/25 08:49:36;;;;;;;22.55;18.38;;;;;;;;;;5001726;28;86803;-59
2021/11/25 08:52:05;;;;;;;25.05;19.00;;;;;;;;;;5001343;28;86769;-55
2021/11/25 08:54:32;;;;;;;19.52;15.18;;;;;;;;;;5001287;28;87559;-56
2021/11/25 08:56:59;;;;;;;19.25;17.05;;;;;;;;;;5001839;28;87066;-54
2021/11/25 08:59:26;;;;;;;22.48;17.80;;;;;;;;;;5000754;28;86970;-56
2021/11/25 09:01:53;;;;;;;20.17;17.42;;;;;;;;;;5000002;28;88869;-57
2021/11/25 09:04:21;;;;;;;22.33;18.38;;;;;;;;;;5016371;28;88501;-58
2021/11/25 09:06:48;;;;;;;23.00;19.10;;;;;;;;;;5018967;28;86962;-56
2021/11/25 09:09:15;;;;;;;22.67;19.80;;;;;;;;;;5020195;28;87208;-59
2021/11/25 09:11:43;;;;;;;22.75;19.17;;;;;;;;;;5017589;28;89592;-58
2021/11/25 09:14:10;;;;;;;19.40;17.27;;;;;;;;;;5016053;28;89383;-57
2021/11/25 09:16:36;;;;;;;23.08;17.60;;;;;;;;;;5016386;28;86912;-60
2021/11/25 09:19:04;;;;;;;19.13;16.52;;;;;;;;;;5018931;28;86870;-58
2021/11/25 09:21:31;;;;;;;22.75;18.40;;;;;;;;;;5017575;28;87609;-57
2021/11/25 09:23:59;;;;;;;23.98;19.45;;;;;;;;;;5018649;28;88076;-57
2021/11/25 09:26:26;;;;;;;21.48;19.20;;;;;;;;;;5020135;28;86867;-59
2021/11/25 09:28:58;;;;;;;21.92;19.13;;;;;;;;;;5021915;28;86192;-58
2021/11/25 09:31:29;;;;;;;26.45;22.90;;;;;;;;;;5022223;28;88721;-58
2021/11/25 09:33:58;;;;;;;26.58;21.70;;;;;;;;;;5018369;28;88591;-57
2021/11/25 09:36:26;;;;;;;28.05;21.75;;;;;;;;;;5019997;28;87852;-59
2021/11/25 09:38:54;;;;;;;29.27;22.92;;;;;;;;;;5020657;28;87618;-56
2021/11/25 09:41:21;;;;;;;25.25;21.73;;;;;;;;;;5020959;28;88701;-57
2021/11/25 09:43:48;;;;;;;27.58;23.23;;;;;;;;;;5019939;28;87438;-57
2021/11/25 09:46:16;;;;;;;26.27;21.98;;;;;;;;;;5019705;28;87199;-58
2021/11/25 09:48:43;;;;;;;28.08;20.90;;;;;;;;;;5020444;28;87427;-56
2021/11/25 09:51:10;;;;;;;28.17;20.70;;;;;;;;;;5021392;28;88782;-54
2021/11/25 09:53:38;;;;;;;28.40;20.67;;;;;;;;;;5020774;28;88451;-55
2021/11/25 09:56:07;;;;;;;26.65;22.42;;;;;;;;;;5021403;28;86930;-53
2021/11/25 09:58:36;;;;;;;22.38;19.92;;;;;;;;;;5019331;28;86920;-56
2021/11/25 10:01:09;;;;;;;26.40;21.60;;;;;;;;;;5020242;28;88592;-56
2021/11/25 10:03:38;;;;;;;30.23;21.17;;;;;;;;;;5019901;28;89603;-60
2021/11/25 10:06:05;;;;;;;28.65;22.23;;;;;;;;;;5018580;28;87051;-59
2021/11/25 10:08:37;;;;;;;26.60;21.58;;;;;;;;;;5020400;28;86852;-60
2021/11/25 10:11:14;;;;;;;27.20;20.33;;;;;;;;;;5013824;28;88635;-60
2021/11/25 10:13:43;;;;;;;25.88;21.38;;;;;;;;;;5019476;28;87299;-56
2021/11/25 10:16:14;;;;;;;27.40;21.13;;;;;;;;;;5020274;28;86923;-60
2021/11/25 10:18:41;;;;;;;25.80;20.45;;;;;;;;;;5018993;28;86111;-58
2021/11/25 10:21:14;;;;;;;24.42;20.23;;;;;;;;;;5019089;28;88597;-58
2021/11/25 10:23:41;;;;;;;22.60;19.45;;;;;;;;;;5020651;28;88491;-58
2021/11/25 10:26:16;;;;;;;23.27;20.27;;;;;;;;;;5000909;28;88147;-59
2021/11/25 10:28:47;;;;;;;22.55;18.50;;;;;;;;;;5020546;28;87159;-60
2021/11/25 10:31:24;;;;;;;25.05;20.75;;;;;;;;;;5018792;28;88734;-61
2021/11/25 10:34:04;;;;;;;32.72;23.05;;;;;;;;;;5016864;28;88670;-59
2021/11/25 10:42:06;;;;;;;24.60;22.05;;;;;;;;;;5018457;28;88690;-58
2021/11/25 10:44:36;;;;;;;26.88;21.92;;;;;;;;;;5020175;28;88635;-58
2021/11/25 10:47:15;;;;;;;22.83;20.40;;;;;;;;;;5017211;28;87058;-58
2021/11/25 10:49:47;;;;;;;28.35;24.27;;;;;;;;;;5012991;28;88466;-56
2021/11/25 10:52:20;;;;;;;25.20;22.15;;;;;;;;;;5017753;28;89760;-58
2021/11/25 10:54:55;;;;;;;26.52;21.75;;;;;;;;;;5019341;28;88527;-58
2021/11/25 10:57:35;;;;;;;25.75;22.02;;;;;;;;;;5018458;28;87069;-54
2021/11/25 11:00:12;;;;;;;25.67;22.33;;;;;;;;;;5020409;28;87703;-58
2021/11/25 11:02:40;;;;;;;27.00;22.77;;;;;;;;;;5019594;28;86926;-60
2021/11/25 11:05:13;;;;;;;26.10;20.98;;;;;;;;;;5006288;28;88438;-59
2021/11/25 11:07:45;;;;;;;32.63;26.50;;;;;;;;;;5003071;28;86859;-59
2021/11/25 11:10:26;;;;;;;30.65;23.88;;;;;;;;;;4997012;28;86847;-59
2021/11/25 11:13:02;;;;;;;33.28;24.88;;;;;;;;;;5002276;28;88595;-63
2021/11/25 11:15:50;;;;;;;27.23;22.83;;;;;;;;;;5002226;28;88511;-60
2021/11/25 11:20:50;;;;;;;27.08;23.83;;;;;;;;;;5002451;28;86926;-60
2021/11/25 11:23:22;;;;;;;26.20;22.02;;;;;;;;;;4984965;28;88921;-59
2021/11/25 11:25:52;;;;;;;25.83;20.58;;;;;;;;;;5002251;28;88572;-59
2021/11/25 11:28:19;;;;;;;23.80;20.77;;;;;;;;;;5002574;28;87009;-59
2021/11/25 11:30:46;;;;;;;26.63;21.20;;;;;;;;;;5002723;28;86894;-57
2021/11/25 11:33:15;;;;;;;25.65;20.30;;;;;;;;;;5008506;28;88954;-60
2021/11/25 11:35:42;;;;;;;24.15;20.02;;;;;;;;;;5008073;28;89974;-59
2021/11/25 11:38:13;;;;;;;24.08;19.13;;;;;;;;;;5008547;28;87258;-60
2021/11/25 11:40:42;;;;;;;33.47;25.20;;;;;;;;;;4996619;28;87221;-61
2021/11/25 11:43:10;;;;;;;35.90;24.30;;;;;;;;;;5010078;28;89653;-59
2021/11/25 11:45:38;;;;;;;27.60;22.08;;;;;;;;;;4992821;28;89780;-60
2021/11/25 11:48:09;;;;;;;26.52;23.00;;;;;;;;;;4989152;28;88873;-59
2021/11/25 11:50:41;;;;;;;30.83;24.33;;;;;;;;;;4996010;28;86978;-56
2021/11/25 11:53:13;;;;;;;26.17;21.35;;;;;;;;;;5009821;28;88648;-58
2021/11/25 11:55:44;;;;;;;27.33;23.05;;;;;;;;;;5009522;28;88379;-59
2021/11/25 11:58:30;;;;;;;26.13;22.35;;;;;;;;;;5006454;28;87240;-58
2021/11/25 12:01:07;;;;;;;27.80;22.20;;;;;;;;;;5005667;28;87219;-56
2021/11/25 12:03:45;;;;;;;28.10;21.67;;;;;;;;;;5004574;28;89079;-56
2021/11/25 12:06:49;;;;;;;25.55;22.70;;;;;;;;;;5002983;28;87510;-57
2021/11/25 12:09:16;;;;;;;28.90;20.88;;;;;;;;;;4973358;28;88330;-58
2021/11/25 12:11:45;;;;;;;24.85;20.65;;;;;;;;;;5008648;28;88262;-58
2021/11/25 12:14:26;;;;;;;22.02;19.60;;;;;;;;;;5001873;28;88453;-58
2021/11/25 12:16:59;;;;;;;22.08;19.73;;;;;;;;;;5001747;28;87742;-57
2021/11/25 12:19:36;;;;;;;21.00;18.90;;;;;;;;;;5002976;28;86830;-58
2021/11/25 12:22:27;;;;;;;20.58;18.48;;;;;;;;;;5004004;28;86809;-56
2021/11/25 12:25:00;;;;;;;19.88;17.88;;;;;;;;;;5002016;28;88633;-57
2021/11/25 12:27:38;;;;;;;20.80;18.35;;;;;;;;;;5003933;28;88678;-55
2021/11/25 12:30:13;;;;;;;26.05;21.55;;;;;;;;;;5001877;28;86751;-56
2021/11/25 12:32:52;;;;;;;22.77;19.45;;;;;;;;;;5003224;28;87616;-59
2021/11/25 12:35:35;;;;;;;20.33;18.20;;;;;;;;;;5001613;28;89597;-58
2021/11/25 12:38:08;;;;;;;22.00;19.75;;;;;;;;;;5007113;28;89494;-59
2021/11/25 12:40:57;;;;;;;21.73;18.30;;;;;;;;;;5005952;28;86871;-59
2021/11/25 12:43:30;;;;;;;20.40;18.00;;;;;;;;;;5007989;28;87492;-59
2021/11/25 12:46:18;;;;;;;23.63;19.27;;;;;;;;;;5013576;28;88758;-58
2021/11/25 12:48:49;;;;;;;22.50;20.08;;;;;;;;;;5000503;28;88574;-58
2021/11/25 12:51:21;;;;;;;23.13;20.63;;;;;;;;;;5001102;28;86903;-57
2021/11/25 12:53:52;;;;;;;22.10;19.70;;;;;;;;;;5000260;28;86140;-59
2021/11/25 12:56:31;;;;;;;22.85;18.45;;;;;;;;;;4999957;28;88627;-58
2021/11/25 12:59:07;;;;;;;20.75;18.52;;;;;;;;;;5002662;28;88672;-58
2021/11/25 13:01:37;;;;;;;21.85;17.48;;;;;;;;;;5002230;28;87818;-57
2021/11/25 13:04:18;;;;;;;21.00;18.88;;;;;;;;;;5003150;28;88391;-58
2021/11/25 13:06:48;;;;;;;20.98;18.50;;;;;;;;;;5003600;28;87506;-57
2021/11/25 13:09:21;;;;;;;23.88;21.08;;;;;;;;;;5003447;28;88643;-54
2021/11/25 13:11:49;;;;;;;22.98;20.13;;;;;;;;;;5003381;28;86885;-58
2021/11/25 13:14:22;;;;;;;22.20;19.35;;;;;;;;;;5003637;28;87229;-56
2021/11/25 13:16:52;;;;;;;22.10;19.65;;;;;;;;;;5004127;28;88610;-55
2021/11/25 13:19:22;;;;;;;21.25;18.48;;;;;;;;;;5004085;28;88481;-60
2021/11/25 13:21:51;;;;;;;20.65;18.08;;;;;;;;;;5004047;28;86764;-59
2021/11/25 13:24:29;;;;;;;24.90;18.05;;;;;;;;;;5004020;28;87039;-56
2021/11/25 13:27:03;;;;;;;23.92;18.48;;;;;;;;;;5003204;28;89696;-58
2021/11/25 13:29:48;;;;;;;23.65;19.65;;;;;;;;;;5003653;28;89968;-58
2021/11/25 13:32:17;;;;;;;;;;;;;;;;;;5003955;28;86799;-57
2021/11/25 13:34:48;;;;;;;20.33;17.27;;;;;;;;;;5005676;28;86726;-59
2021/11/25 13:37:19;;;;;;;21.05;18.88;;;;;;;;;;5003401;28;88734;-57
2021/11/25 13:39:54;;;;;;;21.60;18.98;;;;;;;;;;5003477;28;87625;-59
2021/11/25 13:42:22;;;;;;;20.70;18.27;;;;;;;;;;5001397;28;86909;-57
2021/11/25 13:44:50;;;;;;;21.27;19.17;;;;;;;;;;5004085;28;86068;-65
2021/11/25 13:47:22;;;;;;;21.70;19.38;;;;;;;;;;5000682;28;88461;-60
2021/11/25 13:49:54;;;;;;;22.08;19.50;;;;;;;;;;5003669;28;88407;-57
2021/11/25 13:52:28;;;;;;;21.15;18.92;;;;;;;;;;5002474;28;88788;-54
2021/11/25 13:54:55;;;;;;;20.23;18.10;;;;;;;;;;5004240;28;86995;-64
2021/11/25 13:57:22;;;;;;;20.45;17.10;;;;;;;;;;5002754;28;88405;-56
2021/11/25 13:59:49;;;;;;;17.98;16.17;;;;;;;;;;5002620;28;87556;-56
2021/11/25 14:02:24;;;;;;;19.67;17.05;;;;;;;;;;5000808;28;87085;-57
2021/11/25 14:05:02;;;;;;;19.25;15.60;;;;;;;;;;5002693;28;86961;-58
2021/11/25 14:07:30;;;;;;;16.38;14.73;;;;;;;;;;5002197;28;88547;-56
2021/11/25 14:10:23;;;;;;;17.10;15.30;;;;;;;;;;4998871;28;87591;-57
2021/11/25 14:12:52;;;;;;;19.80;17.80;;;;;;;;;;4995299;28;86929;-55
2021/11/25 14:15:25;;;;;;;17.80;15.80;;;;;;;;;;5002709;28;87804;-56
2021/11/25 14:17:53;;;;;;;21.13;16.05;;;;;;;;;;5001840;28;89770;-55
2021/11/25 14:20:25;;;;;;;18.75;16.75;;;;;;;;;;5001726;28;89514;-56
2021/11/25 14:22:54;;;;;;;18.75;16.73;;;;;;;;;;5002347;28;87337;-57
2021/11/25 14:25:22;;;;;;;17.90;15.40;;;;;;;;;;5001905;28;86833;-57
2021/11/25 14:30:34;;;;;;;17.98;16.33;;;;;;;;;;5002660;28;88705;-57
2021/11/25 14:33:06;;;;;;;15.60;13.38;;;;;;;;;;5002173;28;86929;-57
2021/11/25 14:35:38;;;;;;;17.38;15.60;;;;;;;;;;5001994;28;86289;-54
2021/11/25 14:38:13;;;;;;;15.75;14.07;;;;;;;;;;5002130;28;88060;-55
2021/11/25 14:40:45;;;;;;;16.48;14.77;;;;;;;;;;5001343;28;88035;-57
2021/11/25 14:43:22;;;;;;;16.58;15.00;;;;;;;;;;4983280;28;88335;-57
2021/11/25 14:45:52;;;;;;;16.90;15.07;;;;;;;;;;5002365;28;87597;-61
2021/11/25 14:48:31;;;;;;;16.00;14.48;;;;;;;;;;5001654;28;88913;-56